Latest Weather Observations for Gunnedah Airport

IDN60801

Issued at 1:03 pm EST Saturday 27 August 2016 (issued every 30 minutes, with the page automatically refreshed every 10 minutes)

About weather observations | Map of weather stations | Latest weather observations for NSW | Other Formats
Station Details ID: 055202 Name: GUNNEDAH AIRPORT AWS Lat: -30.95 Lon: 150.25 Height: 262.57 m
Data from the previous 72 hours. | See also: Recent months at Gunnedah Airport
Date/Time
EST
Temp
°C
App
Temp
°C
Dew
Point
°C
Rel
Hum
%
Delta-T
°C
Wind Press
QNH
hPa
Press
MSL
hPa
Rain since
9am
mm
Dir  Spd
km/h
Gust
km/h
Spd
kts
Gust
kts
27/01:00pm 15.6 13.3 7.4 58 4.1 ENE 9 15 5 8 1022.5 1022.6 0.0
27/12:30pm 14.8 11.6 5.3 53 4.5 SSE 11 19 6 10 1022.8 1022.9 0.0
27/12:00pm 14.3 10.9 5.9 57 4.0 SSE 13 19 7 10 1023.3 1023.5 0.0
27/11:30am 13.8 11.8 6.2 60 3.7 NE 6 9 3 5 1023.5 1023.7 0.0
27/11:00am 12.6 11.1 5.1 60 3.5 SSW 2 6 1 3 1023.7 1023.9 0.0
27/10:30am 11.6 9.7 5.0 64 3.1 E 4 7 2 4 1023.8 1024.0 0.0
27/10:00am 10.9 9.9 5.7 70 2.4 CALM 0 6 0 3 1024.1 1024.3 0.0
27/09:30am 9.2 7.9 4.2 71 2.2 CALM 0 0 0 0 1024.1 1024.3 0.0
27/09:00am 8.4 7.1 4.2 75 1.9 CALM 0 0 0 0 1024.0 1024.2 0.0
27/08:30am 7.3 6.1 4.6 83 1.2 CALM 0 0 0 0 1024.0 1024.2 0.0
27/08:00am 5.0 3.6 3.7 91 0.5 CALM 0 0 0 0 1023.7 1023.9 0.0
27/07:30am 2.2 0.4 1.3 94 0.3 CALM 0 0 0 0 1023.2 1023.4 0.0
27/07:00am 0.7 -1.3 -0.2 94 0.3 CALM 0 0 0 0 1022.6 1022.7 0.0
27/06:30am -0.2 -2.4 -1.2 93 0.3 CALM 0 0 0 0 1022.5 1022.6 0.0
27/06:00am -0.4 -2.6 -1.4 93 0.3 CALM 0 0 0 0 1022.3 1022.4 0.0
27/05:30am -0.5 -2.7 -1.6 92 0.4 CALM 0 0 0 0 1021.7 1021.9 0.0
27/05:00am 0.2 -1.9 -0.8 93 0.4 CALM 0 0 0 0 1021.3 1021.5 0.0
27/04:30am 0.7 -1.3 -0.4 92 0.4 CALM 0 0 0 0 1021.1 1021.3 0.0
27/04:00am 1.2 -0.8 0.2 93 0.4 CALM 0 0 0 0 1020.9 1021.1 0.0
27/03:30am 1.3 -0.6 0.3 93 0.4 CALM 0 0 0 0 1020.8 1021.0 0.0
27/03:00am 1.2 -0.8 0.0 92 0.4 CALM 0 0 0 0 1020.8 1021.0 0.0
27/02:30am 1.4 -0.6 0.2 92 0.4 CALM 0 0 0 0 1020.6 1020.8 0.0
27/02:00am 1.0 -2.3 -0.1 92 0.4 E 7 11 4 6 1020.8 1021.0 0.0
27/01:30am 1.3 -2.0 -0.2 90 0.6 ENE 7 11 4 6 1020.8 1021.0 0.0
27/01:00am 1.6 -0.3 0.3 91 0.5 CALM 0 0 0 0 1021.2 1021.4 0.0
27/12:30am 1.8 -0.1 0.5 91 0.5 CALM 0 0 0 0 1021.1 1021.3 0.0
27/12:00am 2.4 0.6 0.9 90 0.6 CALM 0 0 0 0 1021.2 1021.4 0.0
 
Date/Time
EST
Temp
°C
App
Temp
°C
Dew
Point
°C
Rel
Hum
%
Delta-T
°C
Wind Press
QNH
hPa
Press
MSL
hPa
Rain since
9am
mm
Dir  Spd
km/h
Gust
km/h
Spd
kts
Gust
kts
26/11:30pm 2.5 -1.1 0.7 88 0.7 NNE 9 11 5 6 1021.1 1021.3 0.0
26/11:00pm 3.2 -0.3 1.3 87 0.7 NNE 9 11 5 6 1021.0 1021.2 0.0
26/10:30pm 5.7 3.7 2.4 79 1.4 SSW 2 6 1 3 1021.0 1021.2 0.0
26/10:00pm 6.7 4.3 4.2 84 1.1 SW 6 7 3 4 1020.9 1021.1 0.0
26/09:30pm 7.3 4.7 4.3 81 1.3 WNW 7 7 4 4 1021.0 1021.2 0.0
26/09:00pm 6.8 5.1 3.8 81 1.3 S 2 15 1 8 1020.9 1021.1 0.0
26/08:30pm 6.4 5.0 3.4 81 1.3 CALM 0 0 0 0 1020.6 1020.8 0.0
26/08:00pm 8.6 7.2 3.4 70 2.3 CALM 0 0 0 0 1020.4 1020.6 0.0
26/07:30pm 7.4 5.9 2.9 73 1.9 CALM 0 0 0 0 1020.2 1020.4 0.0
26/07:00pm 8.1 6.6 3.0 70 2.2 CALM 0 0 0 0 1020.0 1020.2 0.0
26/06:30pm 8.1 6.4 1.9 65 2.6 CALM 0 6 0 3 1019.5 1019.6 0.0
26/06:00pm 10.3 7.0 2.2 57 3.5 SE 9 11 5 6 1019.1 1019.2 0.0
26/05:30pm 11.0 8.0 1.8 53 4.0 SE 7 9 4 5 1018.9 1019.0 0.0
26/05:00pm 11.4 8.4 3.9 60 3.4 SSE 9 11 5 6 1018.6 1018.7 0.0
26/04:30pm 11.2 7.5 2.5 55 3.8 S 11 17 6 9 1018.1 1018.3 0.0
26/04:00pm 12.4 8.0 2.6 51 4.3 S 15 19 8 10 1017.7 1017.9 0.0
26/03:30pm 14.1 9.5 1.7 43 5.5 SSE 15 30 8 16 1017.5 1017.7 0.0
26/03:00pm 14.2 9.9 1.2 41 5.7 SSW 13 20 7 11 1017.2 1017.4 0.0
26/02:30pm 14.1 9.2 2.0 44 5.4 SSW 17 24 9 13 1017.4 1017.6 0.0
26/02:00pm 13.5 9.1 0.5 41 5.5 SSW 13 19 7 10 1017.5 1017.7 0.0
26/01:30pm 13.1 9.4 2.6 49 4.7 SSW 11 20 6 11 1017.8 1018.0 0.0
26/01:00pm 13.6 10.5 5.7 59 3.8 S 11 19 6 10 1018.1 1018.3 0.0
26/12:30pm 12.9 8.7 3.8 54 4.2 SSW 15 26 8 14 1018.5 1018.6 0.0
26/12:00pm 12.4 7.6 0.5 44 5.0 S 15 24 8 13 1019.1 1019.2 0.0
26/11:30am 11.9 8.6 4.4 60 3.4 NNW 11 15 6 8 1019.4 1019.5 0.0
26/11:00am 11.9 8.9 4.2 59 3.5 NW 9 15 5 8 1019.6 1019.7 0.0
26/10:30am 10.9 8.2 3.7 61 3.2 SW 7 13 4 7 1019.9 1020.1 0.0
26/10:00am 10.1 8.4 3.8 65 2.8 SW 2 9 1 5 1020.1 1020.3 0.0
26/09:30am 8.9 7.4 4.9 76 1.8 WSW 2 9 1 5 1020.1 1020.3 0.0
26/09:00am 7.3 4.6 3.9 79 1.5 WNW 7 11 4 6 1020.2 1020.4 0.0
26/08:30am 6.2 3.6 4.0 86 1.0 NNW 7 13 4 7 1020.3 1020.5 0.0
26/08:00am 4.3 2.7 2.3 87 0.8 CALM 0 0 0 0 1020.0 1020.2 0.0
26/07:30am 2.0 0.1 0.8 92 0.5 CALM 0 0 0 0 1019.7 1019.8 0.0
26/07:00am 0.0 -2.1 -1.1 92 0.4 CALM 0 0 0 0 1019.4 1019.5 0.0
26/06:30am 0.0 -3.3 -1.0 93 0.4 NW 6 11 3 6 1019.1 1019.2 0.0
26/06:00am -0.4 -2.6 -1.4 93 0.3 CALM 0 0 0 0 1018.7 1018.8 0.0
26/05:30am -0.7 -2.9 -1.8 92 0.4 CALM 0 0 0 0 1018.5 1018.6 0.0
26/05:00am -0.7 -3.0 -2.0 91 0.4 CALM 0 0 0 0 1018.1 1018.3 0.0
26/04:30am -0.2 -2.4 -1.3 92 0.4 CALM 0 0 0 0 1018.0 1018.2 0.0
26/04:00am -0.1 -2.7 -1.5 90 0.5 NNW 2 7 1 4 1017.7 1017.9 0.0
26/03:30am 0.4 -3.8 -0.7 92 0.4 NNE 11 13 6 7 1017.6 1017.8 0.0
26/03:00am -0.2 -4.1 -1.5 91 0.4 N 9 11 5 6 1017.4 1017.6 0.0
26/02:30am 0.3 -3.6 -1.3 89 0.6 NE 9 13 5 7 1017.3 1017.5 0.0
26/02:00am 2.1 -1.6 -0.2 85 0.9 WNW 9 11 5 6 1017.4 1017.6 0.0
26/01:30am 2.0 0.0 0.2 88 0.7 CALM 0 0 0 0 1017.6 1017.8 0.0
26/01:00am 3.3 -0.2 1.0 85 0.9 WSW 9 13 5 7 1017.6 1017.8 0.0
26/12:30am 3.3 0.4 1.5 88 0.7 N 6 9 3 5 1017.7 1017.9 0.0
26/12:00am 1.9 -1.8 0.0 87 0.7 N 9 11 5 6 1017.7 1017.9 0.0
 
Date/Time
EST
Temp
°C
App
Temp
°C
Dew
Point
°C
Rel
Hum
%
Delta-T
°C
Wind Press
QNH
hPa
Press
MSL
hPa
Rain since
9am
mm
Dir  Spd
km/h
Gust
km/h
Spd
kts
Gust
kts
25/11:30pm 2.7 -0.4 0.3 84 0.9 N 6 7 3 4 1017.5 1017.7 0.0
25/11:00pm 3.3 1.3 0.2 80 1.2 CALM 0 7 0 4 1017.5 1017.7 0.0
25/10:30pm 5.3 2.8 1.6 77 1.5 SSW 4 9 2 5 1017.3 1017.5 0.0
25/10:00pm 6.6 2.9 2.1 73 1.9 WNW 11 15 6 8 1017.2 1017.4 0.0
25/09:30pm 6.5 2.6 1.2 69 2.1 W 11 13 6 7 1017.0 1017.2 0.0
25/09:00pm 8.2 3.2 1.4 62 2.8 WSW 17 22 9 12 1016.6 1016.7 0.0
25/08:30pm 8.9 3.4 1.6 60 3.1 SW 20 32 11 17 1016.5 1016.6 0.0
25/08:00pm 8.0 3.6 2.5 68 2.3 WSW 15 20 8 11 1016.5 1016.6 0.0
25/07:30pm 8.3 3.9 2.8 68 2.4 W 15 19 8 10 1016.3 1016.4 0.0
25/07:00pm 9.8 5.9 3.5 65 2.8 WNW 13 17 7 9 1015.9 1016.0 0.0
25/06:30pm 10.9 6.7 3.7 61 3.2 WSW 15 19 8 10 1015.3 1015.4 0.0
25/06:00pm 10.5 7.4 5.7 72 2.2 W 11 13 6 7 1014.6 1014.7 0.0
25/05:30pm 10.4 7.5 4.8 68 2.6 W 9 11 5 6 1014.1 1014.3 0.0
25/05:00pm 11.4 7.7 4.2 61 3.3 W 13 17 7 9 1013.7 1013.9 0.0
25/04:30pm 13.8 9.0 4.4 53 4.4 WSW 19 26 10 14 1013.4 1013.5 0.0
25/04:00pm 14.0 9.0 3.8 50 4.7 SW 19 24 10 13 1013.1 1013.2 0.0
25/03:30pm 14.2 7.8 5.0 54 4.4 SW 28 37 15 20 1013.1 1013.2 0.0
25/03:00pm 14.0 8.5 6.1 59 3.8 SW 24 32 13 17 1013.0 1013.1 0.0
25/02:30pm 13.1 8.3 5.8 61 3.5 WSW 20 30 11 16 1013.0 1013.1 0.0
25/02:00pm 12.9 7.7 5.3 60 3.6 WSW 22 30 12 16 1013.0 1013.1 0.0
25/01:30pm 13.0 8.4 6.4 64 3.2 WSW 20 30 11 16 1012.8 1012.9 0.0
25/01:00pm 13.0 8.2 5.7 61 3.5 W 20 24 11 13 1012.6 1012.7 0.0
25/12:30pm 13.2 8.5 6.1 62 3.4 W 20 24 11 13 1012.8 1012.9 0.0
25/12:00pm 13.2 8.7 6.8 65 3.1 WSW 20 33 11 18 1013.0 1013.1 0.0
25/11:30am 13.2 8.5 6.1 62 3.4 W 20 28 11 15 1013.1 1013.2 0.0
25/11:00am 12.1 7.2 6.8 70 2.6 W 22 30 12 16 1013.3 1013.4 0.0
25/10:30am 11.9 6.9 6.6 70 2.6 W 22 32 12 17 1013.3 1013.4 0.0
25/10:00am 11.0 5.7 6.7 75 2.1 W 24 32 13 17 1013.1 1013.2 0.0
25/09:30am 10.4 5.8 6.5 77 1.9 WNW 20 26 11 14 1013.0 1013.1 0.0
25/09:00am 10.1 5.9 7.3 83 1.4 W 19 24 10 13 1012.9 1013.0 11.8
25/08:30am 9.5 6.5 7.6 88 0.9 WNW 13 17 7 9 1012.8 1012.9 11.8
25/08:00am 9.4 6.4 7.7 89 0.8 NW 13 17 7 9 1012.6 1012.7 11.8
25/07:30am 9.0 6.0 7.5 90 0.7 NW 13 19 7 10 1012.2 1012.3 11.8
25/07:00am 8.8 5.7 7.4 91 0.7 NW 13 19 7 10 1011.9 1012.0 11.8
25/06:30am 8.7 6.0 7.3 91 0.7 NW 11 15 6 8 1011.6 1011.7 11.8
25/06:00am 8.7 6.9 7.2 90 0.7 NW 6 9 3 5 1011.2 1011.3 11.8
25/05:30am 8.8 6.1 7.4 91 0.7 NNW 11 17 6 9 1010.6 1010.7 11.8
25/05:00am 8.7 6.4 7.3 91 0.7 N 9 11 5 6 1010.1 1010.2 11.8
25/04:30am 8.7 6.0 7.5 92 0.6 N 11 13 6 7 1009.7 1009.8 11.8
25/04:00am 8.6 5.9 7.2 91 0.7 NW 11 15 6 8 1009.4 1009.5 11.8
25/03:30am 8.6 5.8 7.1 90 0.7 NW 11 15 6 8 1009.4 1009.5 11.8
25/03:00am 8.8 4.9 7.1 89 0.8 NW 17 24 9 13 1009.3 1009.4 11.8
25/02:30am 9.1 6.1 7.7 91 0.7 NW 13 17 7 9 1009.5 1009.6 11.8
25/02:00am 9.4 7.2 8.0 91 0.7 NW 9 17 5 9 1009.4 1009.5 11.8
25/01:30am 9.6 7.1 8.2 91 0.7 WNW 11 17 6 9 1009.5 1009.6 11.8
25/01:00am 9.9 7.5 8.5 91 0.7 WNW 11 17 6 9 1009.5 1009.6 11.8
25/12:30am 10.0 7.6 8.8 92 0.6 WNW 11 15 6 8 1009.3 1009.4 11.8
25/12:00am 10.4 7.7 9.0 91 0.7 WNW 13 19 7 10 1009.3 1009.4 11.6
 
Date/Time
EST
Temp
°C
App
Temp
°C
Dew
Point
°C
Rel
Hum
%
Delta-T
°C
Wind Press
QNH
hPa
Press
MSL
hPa
Rain since
9am
mm
Dir  Spd
km/h
Gust
km/h
Spd
kts
Gust
kts
24/11:30pm 10.2 8.2 8.6 90 0.8 WNW 9 13 5 7 1009.2 1009.3 11.6
24/11:00pm 10.2 7.4 8.5 89 0.8 W 13 19 7 10 1009.0 1009.1 11.6
24/10:30pm 10.6 6.8 8.9 89 0.9 W 19 24 10 13 1008.5 1008.6 11.6
24/10:00pm 11.0 7.6 9.3 89 0.9 W 17 20 9 11 1008.3 1008.4 11.4
24/09:30pm 10.6 9.1 9.2 91 0.7 WNW 7 9 4 5 1008.1 1008.2 11.4
24/09:00pm 11.1 9.7 9.5 90 0.8 N 7 9 4 5 1007.4 1007.5 11.4
24/08:30pm 11.5 9.0 9.8 89 0.9 W 13 19 7 10 1008.1 1008.2 11.4
24/08:00pm 11.6 9.2 10.0 90 0.8 WSW 13 17 7 9 1007.7 1007.8 11.2
24/07:30pm 12.8 10.9 11.9 94 0.5 WNW 13 17 7 9 1007.7 1007.8 9.6
24/07:00pm 12.6 11.8 11.7 94 0.5 NW 7 9 4 5 1007.2 1007.3 7.6
24/06:30pm 12.6 11.8 11.7 94 0.5 NW 7 9 4 5 1007.0 1007.0 7.2
24/06:00pm 12.7 11.6 11.8 94 0.5 NW 9 11 5 6 1006.9 1006.9 7.0
24/05:30pm 12.9 12.3 11.8 93 0.6 NW 6 9 3 5 1006.7 1006.7 6.8
24/05:00pm 13.1 12.6 12.0 93 0.6 NNW 6 7 3 4 1006.5 1006.5 6.0
24/04:30pm 13.2 13.4 11.9 92 0.7 NNW 2 7 1 4 1006.4 1006.4 4.6
24/04:00pm 13.4 14.0 11.8 90 0.9 CALM 0 0 0 0 1006.3 1006.3 3.6
24/03:30pm 13.4 14.0 11.8 90 0.9 CALM 0 0 0 0 1006.6 1006.6 3.0
24/03:00pm 13.3 13.9 11.9 91 0.8 CALM 0 0 0 0 1006.7 1006.7 2.8
24/02:30pm 13.2 13.7 11.6 90 0.9 CALM 0 0 0 0 1006.8 1006.8 2.2
24/02:00pm 13.2 13.6 11.4 89 1.0 CALM 0 0 0 0 1007.3 1007.4 0.8
24/01:30pm 13.3 13.6 11.0 86 1.2 CALM 0 0 0 0 1007.5 1007.6 0.6

Other Formats:

Comma delimited format used in spreadsheet applications
http://www.bom.gov.au/fwo/IDN60801/IDN60801.95740.axf

JavaScript Object Notation format (JSON) in row-major order
http://www.bom.gov.au/fwo/IDN60801/IDN60801.95740.json